Olathe, KS

3:55 PM CDT on March 31, 2015 (GMT -0500)
Lawrence Municipal | | Change Station
CLOSE
Current Station
Airport
Location: Lawrence,
Elevation: 830 ft
Nearby Weather Stations
Active Advisory: Special Statement

Elev 830 ft 39.01 °N, 95.21 °W | Updated 1 hour ago

Clear
Clear
77 °F
Feels Like 77 °F
N
12
Wind Variable Wind from ESE

Today
High -- | Low -- °F
--% Chance of Precip.
Yesterday
High -- | Low -- °F
Precip. -- in
7:05 AM 7:41 PM
Waxing Gibbous, 88% visible
Pressure 29.95 in
Visibility 10.0 miles
Clouds Clear
Dew Point 31 °F
Humidity 19%
Rainfall 0.00 in
Snow Depth Not available.
UV 8 out of 12
Pollen 9.30 out of 12
Air Quality Not available.
Flu Activity Not available.
METAR KLWC 311952Z AUTO 12010KT 10SM CLR 25/M01 A2996 RMK AO2 SLP142 T02501006

More Conditions Fewer Conditions

Pressure 29.95 in
Visibility 10.0 miles
Clouds Clear
Dew Point 31 °F
Humidity 19%
Rainfall 0.00 in
Snow Depth Not available.
UV 8 out of 12
Pollen 9.30 out of 12
Air Quality Not available.
Flu Activity Not available.
METAR KLWC 311952Z AUTO 12010KT 10SM CLR 25/M01 A2996 RMK AO2 SLP142 T02501006

More Conditions Fewer Conditions

10-Day Weather Forecast

Almanac

Astronomy

Mar. 31, 2015 Rise Set
Actual Time
Civil Twilight
Nautical Twilight
Astronomical Twilight
Moon
Length of Visible Light
Length of Day
Tomorrow will be .
, % of the Moon is Illuminated

Today's Extremes

State Highs State Lows

Community

WunderPhotos

Upload Photos

1,809,826 photos uploaded!

WunderBlogs® & News

Nearby

Air Quality

  Air Quality AQ Index Pollutant
Not available.

Snow Depth

Station Depth Elevation

Earthquake Activity

City Distance Mag. Time & Date
Minimum magnitude displayed is 2.5.

Coastal Water Temperatures

Place Temperature

Stations

Nearby Weather Stations

Station Location Temp. Windchill Dew Point Humidity Wind Precip. Elev Updated Type
                   
Special Statement
Statement as of 8:33 AM CDT on March 31, 2015

... Elevated fire danger this afternoon...

Temperatures today will rise into the 70s while relative humidity
values will drop to or slightly below 25 percent. This warm and very
dry air will combine with northeast winds of 10 to 12 mph to yield a
slightly increased risk for wildfires this afternoon. Interested
parties should monitor conditions this afternoon.